Grand Falls, Canada
Current Conditions -  °F | °C
As of 4:54 PM on Thursday 20 Nov 2014 (Local Time) from KCAR Reporting Station
Overcast Overcast  
Wind Chill: 22°   Ceiling: 9000
Heat Index: 29°   Visibility: 10mi
Dew Point: 18°   Wind: 7mph
Humidity: 64%   Direction: 180°S
Pressure: 29.66"   Gusts: NA
Location:  47.05°N, 67.74°W
Report Text: KCAR 202054Z AUTO 18006KT 10SM FEW034 FEW070 OVC090 M02/M08 A2966 RMK AO2 SLP057 T10171078 56007
Loading
Personal Weather Stations






























Interactive Weather Map New forecast layout! Learn more

10-Day Weather Forecast

Advertisements
Track Severe Weather on mobile